Time;durP1;ratioP1;P1;durP2;ratioP2;P2;SDS_P1;SDS_P2;PMS_P1;PMS_P2;Temp;Humidity;BMP_temperature;BMP_pressure;BME280_temperature;BME280_humidity;BME280_pressure;Samples;Min_cycle;Max_cycle;Signal;HPM_P1;HPM_P2
2021/04/24 00:01:56;;;;;;;9.77;4.30;;;;;;;9.15;48.26;95241.75;2992755;39;20253;-72
2021/04/24 00:03:59;;;;;;;8.45;4.05;;;;;;;9.16;47.80;95239.97;2984842;39;20129;-73
2021/04/24 00:06:00;;;;;;;8.17;4.67;;;;;;;9.14;47.34;95244.50;2983339;39;20115;-69
2021/04/24 00:08:07;;;;;;;8.43;4.18;;;;;;;9.15;47.44;95239.16;2986100;39;20817;-71
2021/04/24 00:10:09;;;;;;;8.52;4.65;;;;;;;9.14;47.99;95244.50;2984160;39;20124;-73
2021/04/24 00:12:10;;;;;;;9.65;4.40;;;;;;;9.15;47.27;95246.16;2983040;39;20068;-71
2021/04/24 00:14:12;;;;;;;9.02;4.53;;;;;;;9.15;47.16;95251.41;2976968;39;20044;-72
2021/04/24 00:16:13;;;;;;;8.70;4.28;;;;;;;9.04;47.57;95241.91;2983102;39;20166;-71
2021/04/24 00:18:15;;;;;;;7.70;4.28;;;;;;;9.08;47.77;95251.13;2983116;39;20066;-73
2021/04/24 00:20:22;;;;;;;12.25;5.20;;;;;;;9.05;48.17;95240.09;2983458;39;20505;-72
2021/04/24 00:22:23;;;;;;;9.88;4.95;;;;;;;9.05;47.70;95237.50;2977941;39;20168;-72
2021/04/24 00:24:24;;;;;;;11.02;5.00;;;;;;;9.04;47.23;95234.06;2983616;39;20087;-71
2021/04/24 00:26:26;;;;;;;9.75;4.72;;;;;;;9.08;48.09;95247.66;2990145;39;20059;-71
2021/04/24 00:28:27;;;;;;;12.25;4.85;;;;;;;9.06;47.75;95244.38;2978445;39;20085;-71
2021/04/24 00:30:29;;;;;;;10.48;4.53;;;;;;;9.02;47.95;95252.47;2983366;39;20055;-72
2021/04/24 00:32:30;;;;;;;8.02;4.38;;;;;;;9.02;47.77;95252.47;2988771;39;20404;-71
2021/04/24 00:34:31;;;;;;;8.13;4.72;;;;;;;8.97;47.76;95243.38;2991476;39;20055;-71
2021/04/24 00:36:33;;;;;;;12.60;4.72;;;;;;;8.97;47.89;95240.78;2992635;39;20087;-70
2021/04/24 00:38:34;;;;;;;9.25;5.03;;;;;;;8.93;48.37;95239.41;2983052;39;20055;-71
2021/04/24 00:40:35;;;;;;;12.38;5.20;;;;;;;8.97;48.19;95233.78;2991789;39;20054;-71
2021/04/24 00:42:37;;;;;;;12.18;4.75;;;;;;;8.96;48.12;95239.13;2982959;39;20043;-72
2021/04/24 00:44:50;;;;;;;8.45;4.85;;;;;;;8.99;48.09;95239.69;2983057;39;20050;-72
2021/04/24 00:46:51;;;;;;;10.07;4.68;;;;;;;8.94;47.62;95236.66;2976876;39;20043;-71
2021/04/24 00:48:52;;;;;;;8.73;4.20;;;;;;;9.00;47.16;95238.72;2992289;39;20086;-71
2021/04/24 00:50:53;;;;;;;8.27;4.65;;;;;;;9.02;47.81;95247.25;2992381;39;20046;-72
2021/04/24 00:52:56;;;;;;;9.48;4.68;;;;;;;8.96;47.84;95242.56;2992500;39;20054;-71
2021/04/24 00:54:57;;;;;;;10.50;4.22;;;;;;;8.96;47.28;95241.75;2982081;39;20467;-72
2021/04/24 00:57:00;;;;;;;8.80;5.10;;;;;;;8.98;47.89;95245.88;2992272;39;20070;-73
2021/04/24 00:59:01;;;;;;;8.38;4.55;;;;;;;9.06;47.91;95247.00;2983135;39;20059;-72
2021/04/24 01:01:03;;;;;;;10.43;5.28;;;;;;;8.87;48.83;95238.16;2981302;39;20059;-72
2021/04/24 01:03:04;;;;;;;7.97;5.13;;;;;;;8.67;48.90;95241.69;2991887;39;20483;-71
2021/04/24 01:05:08;;;;;;;7.57;4.18;;;;;;;8.54;49.44;95231.47;2992566;39;20131;-71
2021/04/24 01:07:09;;;;;;;;;;;;;;;8.61;49.55;95237.84;2991923;39;20086;-72
2021/04/24 01:09:11;;;;;;;10.23;4.47;;;;;;;8.69;48.70;95243.22;2978696;39;20232;-72
2021/04/24 01:11:12;;;;;;;9.40;4.55;;;;;;;8.71;48.66;95240.47;2993287;39;20063;-72
2021/04/24 01:13:16;;;;;;;8.63;4.72;;;;;;;8.74;48.84;95238.41;2990211;39;20369;-73
2021/04/24 01:15:18;;;;;;;9.48;4.70;;;;;;;8.79;49.48;95249.28;2992536;39;20357;-71
2021/04/24 01:17:19;;;;;;;9.55;4.53;;;;;;;8.79;49.26;95238.00;2992336;39;20051;-71
2021/04/24 01:19:23;;;;;;;8.90;5.40;;;;;;;8.74;49.73;95248.03;2999049;39;20057;-72
2021/04/24 01:21:27;;;;;;;10.57;4.70;;;;;;;8.69;50.08;95247.59;2981548;39;20343;-71
2021/04/24 01:23:29;;;;;;;7.63;4.15;;;;;;;8.68;49.58;95241.56;2992128;39;20051;-70
2021/04/24 01:25:30;;;;;;;9.48;4.85;;;;;;;8.65;49.01;95243.59;2973524;39;20125;-71
2021/04/24 01:27:31;;;;;;;8.10;4.65;;;;;;;8.57;49.34;95255.56;2986107;39;20066;-72
2021/04/24 01:29:34;;;;;;;11.40;4.78;;;;;;;8.55;49.38;95247.03;2983224;39;20047;-84
2021/04/24 01:31:47;;;;;;;9.82;4.65;;;;;;;8.57;49.29;95239.88;2989170;39;20031;-85
2021/04/24 01:33:48;;;;;;;13.13;4.95;;;;;;;8.53;49.19;95237.69;2989897;39;20043;-82
2021/04/24 01:35:50;;;;;;;10.40;4.75;;;;;;;8.60;48.87;95231.81;2991920;39;20103;-86
2021/04/24 01:37:52;;;;;;;11.30;4.57;;;;;;;8.61;48.91;95233.44;2987651;39;20403;-86
2021/04/24 01:39:53;;;;;;;7.85;4.97;;;;;;;8.65;49.18;95230.53;2996722;39;20079;-84
2021/04/24 01:41:54;;;;;;;12.27;4.95;;;;;;;8.66;49.23;95238.25;2995844;39;20360;-84
2021/04/24 01:43:56;;;;;;;12.13;5.22;;;;;;;8.66;49.86;95235.63;2996192;39;20060;-85
2021/04/24 01:45:58;;;;;;;8.77;4.32;;;;;;;8.69;49.59;95235.38;2987053;39;20036;-85
2021/04/24 01:47:59;;;;;;;8.43;4.07;;;;;;;8.71;50.12;95243.06;2977732;39;20517;-83
2021/04/24 01:50:01;;;;;;;12.00;4.65;;;;;;;8.68;49.85;95245.97;2985725;39;20321;-83
2021/04/24 01:52:02;;;;;;;10.23;4.80;;;;;;;8.71;50.45;95243.06;2995068;39;20323;-85
2021/04/24 01:54:04;;;;;;;11.00;4.70;;;;;;;8.63;50.16;95243.75;2995010;39;20070;-85
2021/04/24 01:56:06;;;;;;;9.57;4.95;;;;;;;8.64;50.38;95247.19;2986772;39;20512;-85
2021/04/24 01:58:10;;;;;;;8.68;4.50;;;;;;;8.65;49.68;95241.00;2977994;39;20379;-85
2021/04/24 02:00:15;;;;;;;11.98;4.70;;;;;;;8.66;50.29;95245.28;2998420;39;20393;-85
2021/04/24 02:02:17;;;;;;;10.63;4.97;;;;;;;8.61;50.27;95241.28;2991215;39;20427;-83
2021/04/24 02:04:22;;;;;;;13.02;4.57;;;;;;;8.58;50.27;95241.56;2996929;39;20035;-84
2021/04/24 02:06:24;;;;;;;12.48;5.07;;;;;;;8.53;51.18;95246.31;2983556;39;20068;-84
2021/04/24 02:08:43;;;;;;;14.38;5.15;;;;;;;8.56;50.95;95256.53;2996331;39;20083;-86
2021/04/24 02:10:48;;;;;;;11.18;4.75;;;;;;;8.63;50.69;95250.78;2991161;39;20138;-84
2021/04/24 02:12:49;;;;;;;11.63;4.30;;;;;;;8.60;51.45;95252.69;2993287;39;20342;-84
2021/04/24 02:14:51;;;;;;;9.00;5.20;;;;;;;8.55;51.01;95259.25;2998532;39;20392;-86
2021/04/24 02:16:52;;;;;;;9.85;5.43;;;;;;;8.52;51.50;95254.31;2986639;39;20059;-85
2021/04/24 02:18:54;;;;;;;9.95;5.38;;;;;;;8.53;51.57;95248.94;2986883;39;20059;-85
2021/04/24 02:20:55;;;;;;;10.80;5.15;;;;;;;8.51;51.46;95253.47;2996569;39;20054;-84
2021/04/24 02:22:57;;;;;;;9.05;5.13;;;;;;;8.51;51.75;95248.25;2980139;39;20100;-87
2021/04/24 02:25:03;;;;;;;12.30;5.00;;;;;;;8.48;51.96;95250.31;2975470;39;20040;-84
2021/04/24 02:27:06;;;;;;;12.13;5.38;;;;;;;8.46;51.76;95250.44;2994883;39;20079;-84
2021/04/24 02:29:07;;;;;;;10.98;5.00;;;;;;;8.43;51.87;95250.69;2996568;39;20051;-82
2021/04/24 02:31:09;;;;;;;9.77;4.30;;;;;;;8.40;51.97;95245.72;2990226;39;20062;-83
2021/04/24 02:33:11;;;;;;;12.85;6.07;;;;;;;8.29;53.42;95245.81;2985278;39;20052;-86
2021/04/24 02:35:15;;;;;;;12.20;5.28;;;;;;;7.99;53.44;95253.50;2988754;39;20039;-84
2021/04/24 02:37:18;;;;;;;9.55;4.85;;;;;;;7.88;54.45;95250.16;2987558;39;20062;-87
2021/04/24 02:39:31;;;;;;;12.60;5.05;;;;;;;7.79;54.69;95249.97;2985944;39;20110;-84
2021/04/24 02:41:32;;;;;;;10.73;4.75;;;;;;;7.82;54.54;95254.09;3004837;39;20055;-83
2021/04/24 02:43:33;;;;;;;9.95;5.38;;;;;;;7.86;54.54;95247.66;3004363;39;20047;-84
2021/04/24 02:45:35;;;;;;;11.70;4.93;;;;;;;7.93;53.83;95240.97;2996681;39;20059;-84
2021/04/24 02:47:36;;;;;;;11.07;5.00;;;;;;;7.98;53.94;95235.38;3004608;39;20043;-84
2021/04/24 02:49:39;;;;;;;10.15;5.53;;;;;;;8.05;53.89;95248.75;2989287;39;20450;-83
2021/04/24 02:51:40;;;;;;;10.98;5.40;;;;;;;8.05;53.89;95246.94;2996262;39;20083;-83
2021/04/24 02:53:41;;;;;;;13.95;5.32;;;;;;;8.06;53.57;95248.59;3003284;39;20023;-86
2021/04/24 02:55:43;;;;;;;8.77;4.68;;;;;;;8.09;53.82;95256.16;2999440;39;20276;-84
2021/04/24 02:57:44;;;;;;;10.63;5.38;;;;;;;8.04;54.18;95253.09;3005740;39;20046;-86
2021/04/24 02:59:46;;;;;;;11.23;5.50;;;;;;;7.97;54.68;95249.38;2995814;39;20039;-83
2021/04/24 03:01:48;;;;;;;10.63;4.78;;;;;;;8.00;54.50;95249.09;2987473;39;20063;-85
2021/04/24 03:03:49;;;;;;;8.60;5.40;;;;;;;8.02;54.28;95247.19;2995985;39;20120;-85
2021/04/24 03:05:54;;;;;;;9.68;4.95;;;;;;;8.08;53.58;95240.63;2980432;39;20048;-85
2021/04/24 03:07:56;;;;;;;11.23;6.03;;;;;;;8.07;53.77;95239.81;3000627;39;20047;-84
2021/04/24 03:09:57;;;;;;;10.32;5.68;;;;;;;8.08;53.57;95244.06;2988498;39;20061;-84
2021/04/24 03:11:58;;;;;;;14.73;5.50;;;;;;;8.09;53.19;95253.56;2999969;39;20036;-83
2021/04/24 03:13:59;;;;;;;11.50;5.32;;;;;;;8.12;53.50;95253.28;2991097;39;20027;-83
2021/04/24 03:16:01;;;;;;;15.10;5.72;;;;;;;8.10;54.75;95249.16;2988384;39;20067;-84
2021/04/24 03:18:02;;;;;;;14.93;5.65;;;;;;;7.88;54.97;95255.38;2994969;39;20042;-86
2021/04/24 03:20:06;;;;;;;13.05;5.80;;;;;;;7.56;55.71;95254.47;2992247;39;20031;-85
2021/04/24 03:22:08;;;;;;;8.70;5.15;;;;;;;7.37;56.27;95256.94;3002463;39;20039;-85
2021/04/24 03:24:09;;;;;;;8.77;5.28;;;;;;;7.08;57.41;95257.56;2988907;39;20091;-85
2021/04/24 03:26:10;;;;;;;10.70;5.78;;;;;;;6.80;58.48;95260.69;2990805;39;20427;-84
2021/04/24 03:28:12;;;;;;;10.55;5.28;;;;;;;6.87;57.83;95262.69;2998399;39;20032;-84
2021/04/24 03:30:14;;;;;;;12.20;5.45;;;;;;;6.99;57.91;95258.31;2987329;39;20112;-85
2021/04/24 03:32:15;;;;;;;12.52;6.22;;;;;;;7.11;57.28;95265.09;2985156;39;20409;-84
2021/04/24 03:34:17;;;;;;;9.15;5.00;;;;;;;7.22;55.88;95258.19;2986752;39;20360;-86
2021/04/24 03:36:18;;;;;;;13.15;5.10;;;;;;;7.35;56.14;95262.28;2996461;39;20115;-86
2021/04/24 03:38:19;;;;;;;11.30;5.75;;;;;;;7.43;57.36;95256.44;2986578;39;20435;-87
2021/04/24 03:40:21;;;;;;;11.32;5.90;;;;;;;7.50;56.92;95257.59;2996060;39;20063;-84
2021/04/24 03:42:29;;;;;;;12.15;5.85;;;;;;;7.59;55.83;95261.22;2995981;39;20043;-86
2021/04/24 03:44:30;;;;;;;11.38;5.20;;;;;;;7.63;55.55;95262.63;2996165;39;20119;-85
2021/04/24 03:46:32;;;;;;;11.68;5.47;;;;;;;7.68;55.60;95257.88;2986378;39;20131;-86
2021/04/24 03:48:33;;;;;;;8.55;5.78;;;;;;;7.75;56.22;95258.19;2990972;39;20071;-85
2021/04/24 03:50:35;;;;;;;10.73;5.50;;;;;;;7.68;55.29;95259.63;2993398;39;20054;-86
2021/04/24 03:52:36;;;;;;;12.50;5.60;;;;;;;7.70;55.44;95265.53;2992094;39;20067;-85
2021/04/24 03:54:37;;;;;;;9.90;5.50;;;;;;;7.73;55.50;95265.31;2986560;39;20097;-84
2021/04/24 03:56:38;;;;;;;12.90;5.93;;;;;;;7.77;54.65;95270.13;2986798;39;20389;-86
2021/04/24 03:58:40;;;;;;;11.82;5.15;;;;;;;7.81;53.45;95262.88;2988333;39;20462;-84
2021/04/24 04:00:41;;;;;;;8.75;4.95;;;;;;;7.90;53.40;95272.53;2995858;39;20051;-83
2021/04/24 04:02:51;;;;;;;11.57;5.80;;;;;;;7.97;53.02;95270.25;2986735;39;20036;-85
2021/04/24 04:04:52;;;;;;;15.18;5.57;;;;;;;7.99;54.20;95284.00;2991674;39;20039;-85
2021/04/24 04:06:54;;;;;;;10.02;5.57;;;;;;;8.02;55.34;95283.72;2986912;39;20472;-85
2021/04/24 04:08:55;;;;;;;12.05;5.88;;;;;;;8.05;54.38;95299.13;2996966;39;20031;-86
2021/04/24 04:10:56;;;;;;;8.65;5.50;;;;;;;8.07;52.81;95294.63;3003373;39;20055;-85
2021/04/24 04:12:58;;;;;;;12.90;5.78;;;;;;;8.06;53.02;95289.50;3005006;39;20028;-85
2021/04/24 04:14:59;;;;;;;13.20;6.45;;;;;;;8.08;52.79;95288.44;2996895;39;20036;-87
2021/04/24 04:17:00;;;;;;;10.43;5.90;;;;;;;8.05;53.36;95280.88;2990428;39;20043;-86
2021/04/24 04:19:02;;;;;;;13.07;6.10;;;;;;;7.76;54.68;95280.69;2996185;39;20035;-85
2021/04/24 04:21:05;;;;;;;12.60;6.28;;;;;;;7.72;54.40;95287.09;2997783;39;20047;-85
2021/04/24 04:23:06;;;;;;;11.00;6.07;;;;;;;7.79;53.49;95281.25;2979405;39;20079;-84
2021/04/24 04:25:08;;;;;;;15.23;5.65;;;;;;;7.88;52.20;95281.47;2989129;39;20132;-84
2021/04/24 04:27:09;;;;;;;9.38;5.68;;;;;;;7.96;51.51;95286.88;2992250;39;20058;-85
2021/04/24 04:29:11;;;;;;;13.90;5.38;;;;;;;8.01;50.89;95282.06;2995759;39;20035;-85
2021/04/24 04:31:12;;;;;;;8.98;5.47;;;;;;;8.11;50.56;95269.06;2998004;39;20131;-71
2021/04/24 04:33:13;;;;;;;8.77;5.18;;;;;;;8.16;50.19;95278.16;2990426;39;20049;-71
2021/04/24 04:35:15;;;;;;;11.32;5.18;;;;;;;8.28;50.13;95275.47;2990409;39;20431;-71
2021/04/24 04:37:16;;;;;;;12.43;5.00;;;;;;;8.32;50.25;95279.47;2990185;39;20142;-72
2021/04/24 04:39:18;;;;;;;12.88;5.82;;;;;;;8.34;50.14;95280.16;2989794;39;20066;-73
2021/04/24 04:41:19;;;;;;;10.85;5.50;;;;;;;8.43;50.47;95279.41;2990285;39;20062;-73
2021/04/24 04:43:21;;;;;;;12.18;5.85;;;;;;;8.44;50.37;95275.84;2990395;39;20066;-72
2021/04/24 04:45:22;;;;;;;15.10;6.55;;;;;;;8.23;49.57;95281.09;2990422;39;20116;-72
2021/04/24 04:47:23;;;;;;;14.35;5.78;;;;;;;8.19;50.57;95277.94;2972607;39;20076;-72
2021/04/24 04:49:25;;;;;;;9.85;6.00;;;;;;;8.05;49.83;95287.88;2980816;39;20133;-72
2021/04/24 04:51:26;;;;;;;15.27;6.72;;;;;;;7.91;50.73;95281.19;2989860;39;20070;-72
2021/04/24 04:53:27;;;;;;;12.35;6.07;;;;;;;8.02;50.63;95282.91;2981158;39;20160;-73
2021/04/24 04:55:48;;;;;;;10.15;5.78;;;;;;;8.09;50.25;95284.88;2981788;39;20108;-72
2021/04/24 04:57:50;;;;;;;15.50;6.55;;;;;;;8.15;51.23;95273.06;2990170;39;20416;-71
2021/04/24 04:59:52;;;;;;;11.30;5.93;;;;;;;8.15;50.78;95267.84;2980134;39;20062;-73
2021/04/24 05:01:57;;;;;;;10.07;5.68;;;;;;;7.76;50.75;95273.69;2990273;39;20087;-72
2021/04/24 05:04:06;;;;;;;13.02;6.18;;;;;;;7.48;51.52;95271.72;2981802;39;20153;-74
2021/04/24 05:06:08;;;;;;;12.25;6.22;;;;;;;7.23;52.32;95270.25;2990518;39;20146;-73
2021/04/24 05:08:09;;;;;;;16.15;6.68;;;;;;;7.08;53.41;95278.38;2990589;39;20055;-71
2021/04/24 05:10:11;;;;;;;17.10;7.22;;;;;;;6.84;53.90;95269.91;2988846;39;20051;-73
2021/04/24 05:12:12;;;;;;;15.63;8.38;;;;;;;6.77;55.07;95264.38;2971761;39;20060;-73
2021/04/24 05:14:13;;;;;;;16.00;8.65;;;;;;;6.84;55.12;95260.34;2979939;39;20056;-71
2021/04/24 05:16:14;;;;;;;21.45;9.98;;;;;;;6.93;54.04;95270.03;2981864;39;20052;-73
2021/04/24 05:18:15;;;;;;;30.45;10.93;;;;;;;7.15;53.24;95270.91;2990428;39;20057;-71
2021/04/24 05:20:17;;;;;;;19.30;10.25;;;;;;;7.44;53.01;95273.72;2990121;39;20043;-72
2021/04/24 05:22:18;;;;;;;21.52;10.60;;;;;;;7.73;52.15;95273.13;2972377;39;20056;-72
2021/04/24 05:24:20;;;;;;;22.90;10.60;;;;;;;7.91;51.60;95271.56;2996876;39;20142;-84
2021/04/24 05:26:22;;;;;;;20.45;8.68;;;;;;;8.05;50.72;95280.88;2993762;39;20028;-86
2021/04/24 05:28:24;;;;;;;17.80;8.75;;;;;;;8.21;49.99;95275.16;2991281;39;20024;-86
2021/04/24 05:30:25;;;;;;;16.13;8.25;;;;;;;8.30;49.54;95276.16;2978736;40;20069;-87
2021/04/24 05:32:26;;;;;;;16.33;7.35;;;;;;;8.39;49.50;95286.66;2983223;39;20036;-85
2021/04/24 05:34:27;;;;;;;14.07;7.63;;;;;;;8.52;49.38;95285.66;2997463;39;20278;-88
2021/04/24 05:36:28;;;;;;;14.43;7.32;;;;;;;8.63;49.23;95279.50;2997863;39;20043;-86
2021/04/24 05:38:30;;;;;;;16.83;6.90;;;;;;;8.65;48.97;95282.78;3001327;39;20450;-86
2021/04/24 05:40:32;;;;;;;14.27;6.90;;;;;;;8.71;49.07;95287.47;3002498;39;20043;-87
2021/04/24 05:42:33;;;;;;;20.08;8.40;;;;;;;8.17;49.79;95284.22;2988244;39;20107;-73
2021/04/24 05:44:34;;;;;;;16.42;7.68;;;;;;;7.73;52.08;95273.13;2980688;39;20066;-73
2021/04/24 05:46:35;;;;;;;18.48;7.75;;;;;;;7.59;52.06;95276.84;2990430;39;20111;-86
2021/04/24 05:48:37;;;;;;;19.58;7.75;;;;;;;7.69;51.89;95282.16;2999646;39;20058;-87
2021/04/24 05:50:38;;;;;;;15.75;7.20;;;;;;;7.99;51.76;95292.63;2999321;39;20078;-87
2021/04/24 05:52:39;;;;;;;16.02;6.80;;;;;;;8.29;51.07;95298.84;2992045;39;20072;-86
2021/04/24 05:54:43;;;;;;;16.58;7.20;;;;;;;8.55;49.35;95285.38;3001946;39;20119;-85
2021/04/24 05:56:44;;;;;;;12.07;5.75;;;;;;;8.77;48.79;95277.31;2992914;39;20106;-85
2021/04/24 05:58:47;;;;;;;14.30;7.20;;;;;;;8.90;48.46;95278.88;2995743;39;20063;-72
2021/04/24 06:00:48;;;;;;;13.65;6.68;;;;;;;8.39;49.14;95285.84;2992432;39;20430;-84
2021/04/24 06:02:49;;;;;;;15.60;6.53;;;;;;;8.61;49.27;95290.88;3001537;39;20079;-84
2021/04/24 06:04:51;;;;;;;13.18;5.93;;;;;;;8.82;48.44;95290.81;3001187;39;20035;-87
2021/04/24 06:06:52;;;;;;;13.07;6.07;;;;;;;9.07;47.48;95288.66;2991444;39;20062;-86
2021/04/24 06:08:54;;;;;;;15.43;5.85;;;;;;;9.28;47.11;95288.56;3000642;39;20448;-84
2021/04/24 06:10:55;;;;;;;13.65;6.43;;;;;;;9.35;46.38;95284.41;2987311;39;20049;-85
2021/04/24 06:12:56;;;;;;;11.13;5.35;;;;;;;8.77;47.04;95292.16;2989161;39;20120;-73
2021/04/24 06:14:58;;;;;;;14.05;5.82;;;;;;;8.79;47.19;95290.25;2991021;39;20063;-72
2021/04/24 06:16:59;;;;;;;11.75;5.68;;;;;;;8.69;47.03;95284.16;2980242;39;20644;-73
2021/04/24 06:19:00;;;;;;;11.77;5.35;;;;;;;8.43;47.82;95284.63;2982434;39;20047;-73
2021/04/24 06:21:02;;;;;;;8.80;4.72;;;;;;;8.66;47.55;95289.66;2991559;39;20102;-87
2021/04/24 06:23:05;;;;;;;13.73;5.63;;;;;;;8.99;46.78;95294.56;2989181;39;20060;-88
2021/04/24 06:25:10;;;;;;;10.80;5.97;;;;;;;9.28;45.84;95293.78;2987836;39;20088;-86
2021/04/24 06:27:11;;;;;;;10.32;5.10;;;;;;;9.62;45.31;95291.59;2988573;39;20052;-86
2021/04/24 06:29:13;;;;;;;11.40;5.20;;;;;;;9.82;44.52;95286.34;3004762;39;20063;-85
2021/04/24 06:31:14;;;;;;;11.55;5.13;;;;;;;9.98;43.44;95291.81;3000384;39;20043;-87
2021/04/24 06:33:16;;;;;;;7.30;4.57;;;;;;;10.19;42.64;95289.00;2997849;39;20051;-86
2021/04/24 06:35:18;;;;;;;13.18;4.88;;;;;;;10.25;42.94;95285.81;2979412;40;20474;-87
2021/04/24 06:37:22;;;;;;;12.18;5.00;;;;;;;10.29;42.41;95289.03;2999050;39;20042;-87
2021/04/24 06:39:26;;;;;;;12.35;4.70;;;;;;;10.42;42.33;95288.69;2999442;39;20093;-87
2021/04/24 06:41:27;;;;;;;10.85;5.38;;;;;;;10.55;42.57;95291.81;3002355;39;20059;-87
2021/04/24 06:43:28;;;;;;;12.52;5.78;;;;;;;10.66;42.15;95281.13;2987362;39;20051;-85
2021/04/24 06:45:30;;;;;;;9.43;5.57;;;;;;;10.75;42.19;95289.09;2988350;39;20051;-89
2021/04/24 06:47:32;;;;;;;14.65;5.43;;;;;;;10.89;41.42;95300.91;2987845;39;20035;-87
2021/04/24 06:49:33;;;;;;;8.15;4.38;;;;;;;11.06;41.15;95292.25;3005235;39;20050;-87
2021/04/24 06:51:34;;;;;;;8.95;5.30;;;;;;;11.15;40.94;95282.69;2987622;39;20059;-87
2021/04/24 06:53:37;;;;;;;10.35;5.40;;;;;;;10.80;41.01;95284.28;2987404;39;20065;-87
2021/04/24 06:55:38;;;;;;;11.88;5.07;;;;;;;10.59;40.80;95290.56;2996621;39;20047;-86
2021/04/24 06:57:39;;;;;;;10.23;4.53;;;;;;;10.64;40.89;95283.06;2997407;39;20035;-86
2021/04/24 06:59:42;;;;;;;12.50;4.85;;;;;;;10.85;40.47;95289.88;2997048;39;20046;-86
2021/04/24 07:01:44;;;;;;;11.45;3.95;;;;;;;10.94;40.14;95278.50;2987328;39;20107;-88
2021/04/24 07:03:45;;;;;;;9.90;5.05;;;;;;;11.03;39.12;95292.53;2997099;39;20330;-88
2021/04/24 07:05:47;;;;;;;7.90;4.70;;;;;;;10.82;38.91;95291.00;2980016;39;20044;-88
2021/04/24 07:07:49;;;;;;;12.18;5.45;;;;;;;10.14;40.22;95300.88;2981150;39;20436;-85
2021/04/24 07:09:50;;;;;;;7.53;4.55;;;;;;;9.65;41.65;95287.84;2998102;39;20042;-86
2021/04/24 07:11:51;;;;;;;13.60;5.35;;;;;;;9.76;41.26;95286.88;2988218;39;20063;-88
2021/04/24 07:13:53;;;;;;;11.82;6.15;;;;;;;9.24;42.41;95289.78;2987971;39;20036;-86
2021/04/24 07:15:54;;;;;;;22.17;7.10;;;;;;;9.36;42.08;95288.69;2997103;39;20039;-85
2021/04/24 07:17:55;;;;;;;13.27;7.28;;;;;;;9.66;41.88;95281.69;2996682;39;20103;-88
2021/04/24 07:19:57;;;;;;;11.50;4.97;;;;;;;9.37;41.33;95292.94;2997011;39;20039;-85
2021/04/24 07:21:59;;;;;;;12.07;5.68;;;;;;;9.56;41.14;95292.13;2978902;40;20051;-85
2021/04/24 07:24:00;;;;;;;7.95;4.60;;;;;;;9.57;41.20;95292.94;2987062;39;20131;-84
2021/04/24 07:26:01;;;;;;;10.77;5.20;;;;;;;9.97;41.61;95292.78;2978763;40;20097;-88
2021/04/24 07:28:02;;;;;;;12.02;5.53;;;;;;;10.32;40.29;95291.34;2980699;39;20356;-85
2021/04/24 07:30:06;;;;;;;13.48;6.53;;;;;;;10.28;40.32;95295.19;2991634;39;20031;-87
2021/04/24 07:32:07;;;;;;;15.48;6.70;;;;;;;10.30;40.41;95297.69;2997629;39;20051;-88
2021/04/24 07:34:10;;;;;;;13.43;7.10;;;;;;;10.14;39.34;95293.84;2989988;39;20028;-84
2021/04/24 07:36:12;;;;;;;10.77;6.10;;;;;;;10.03;39.15;95283.56;2990348;39;20063;-87
2021/04/24 07:38:14;;;;;;;13.38;5.50;;;;;;;10.40;39.48;95280.16;2972438;39;20036;-86
2021/04/24 07:40:15;;;;;;;14.60;6.45;;;;;;;10.55;38.86;95283.94;2985426;39;20108;-71
2021/04/24 07:42:18;;;;;;;10.07;4.45;;;;;;;10.78;38.08;95278.34;2990430;39;20062;-73
2021/04/24 07:44:19;;;;;;;9.45;5.38;;;;;;;10.76;37.55;95285.53;2971262;39;20081;-72
2021/04/24 07:46:20;;;;;;;11.25;5.55;;;;;;;10.88;36.04;95279.09;2990206;39;20051;-75
2021/04/24 07:48:21;;;;;;;8.85;4.63;;;;;;;10.78;37.40;95286.22;2969610;39;20050;-73
2021/04/24 07:50:23;;;;;;;10.88;4.90;;;;;;;10.96;37.85;95275.75;2980227;39;20058;-74
2021/04/24 07:52:24;;;;;;;12.52;4.90;;;;;;;11.29;37.52;95279.53;2982144;39;20577;-73
2021/04/24 07:54:25;;;;;;;11.15;4.70;;;;;;;11.50;37.43;95281.88;2980763;39;20141;-75
2021/04/24 07:56:27;;;;;;;10.00;5.00;;;;;;;11.55;37.33;95276.16;2979596;39;20054;-72
2021/04/24 07:58:28;;;;;;;11.15;5.75;;;;;;;11.83;37.00;95275.09;2982658;39;20056;-74
2021/04/24 08:00:29;;;;;;;8.88;4.95;;;;;;;12.07;37.03;95268.41;2981161;39;20211;-73
2021/04/24 08:02:31;;;;;;;11.38;5.13;;;;;;;12.12;36.01;95273.19;2981346;39;20058;-75
2021/04/24 08:04:32;;;;;;;13.98;5.20;;;;;;;12.20;36.51;95274.06;2972250;39;20056;-73
2021/04/24 08:06:34;;;;;;;11.73;5.20;;;;;;;12.38;36.37;95268.75;2982157;39;20424;-73
2021/04/24 08:08:36;;;;;;;10.27;4.78;;;;;;;12.54;36.75;95273.28;2972191;39;20421;-73
2021/04/24 08:10:37;;;;;;;9.02;4.80;;;;;;;12.72;36.46;95270.56;2981320;39;20059;-75
2021/04/24 08:12:39;;;;;;;9.60;5.10;;;;;;;12.86;36.91;95261.22;2981360;39;20131;-74
2021/04/24 08:14:40;;;;;;;10.18;5.22;;;;;;;13.02;37.14;95265.72;2981865;39;20088;-74
2021/04/24 08:16:41;;;;;;;8.00;4.50;;;;;;;13.07;36.49;95261.63;2972845;40;20059;-75
2021/04/24 08:18:42;;;;;;;10.57;5.22;;;;;;;13.10;35.26;95260.50;2982252;39;20044;-74
2021/04/24 08:20:44;;;;;;;8.95;4.63;;;;;;;12.95;34.50;95254.19;2982021;39;20055;-74
2021/04/24 08:22:45;;;;;;;7.80;4.50;;;;;;;12.90;34.55;95258.09;2981624;39;20507;-73
2021/04/24 08:24:47;;;;;;;14.60;6.30;;;;;;;12.89;34.55;95251.22;2981302;39;20108;-75
2021/04/24 08:26:48;;;;;;;15.57;5.30;;;;;;;12.96;34.08;95254.03;2981172;39;20427;-72
2021/04/24 08:28:49;;;;;;;10.85;5.45;;;;;;;12.98;33.57;95251.25;2980374;39;20071;-75
2021/04/24 08:30:51;;;;;;;11.88;5.57;;;;;;;13.04;34.00;95248.81;2981020;39;20064;-72
2021/04/24 08:32:52;;;;;;;8.77;5.13;;;;;;;12.98;34.70;95238.09;2981565;39;20411;-74
2021/04/24 08:34:53;;;;;;;12.07;5.22;;;;;;;13.06;34.62;95241.56;2980408;39;20059;-71
2021/04/24 08:36:54;;;;;;;11.93;5.53;;;;;;;13.06;33.70;95238.13;2982056;39;20058;-74
2021/04/24 08:38:59;;;;;;;10.05;4.93;;;;;;;13.09;33.77;95235.97;2981567;39;20499;-73
2021/04/24 08:41:03;;;;;;;10.02;5.07;;;;;;;12.91;33.31;95227.41;2981394;39;20099;-73
2021/04/24 08:43:05;;;;;;;9.73;5.22;;;;;;;12.85;34.22;95226.22;2980895;39;20939;-75
2021/04/24 08:45:20;;;;;;;8.88;5.47;;;;;;;12.74;33.63;95226.53;2979971;39;20060;-72
2021/04/24 08:47:22;;;;;;;11.05;5.10;;;;;;;12.76;33.30;95214.03;2980134;39;20239;-72
2021/04/24 08:49:27;;;;;;;8.80;4.75;;;;;;;12.55;33.37;95211.00;2977033;39;20101;-72
2021/04/24 08:51:29;;;;;;;8.85;4.88;;;;;;;12.40;32.95;95213.41;2986749;39;20054;-73
2021/04/24 08:53:30;;;;;;;7.50;4.25;;;;;;;12.41;32.14;95209.78;2980805;39;20051;-72
2021/04/24 08:55:35;;;;;;;8.20;4.40;;;;;;;12.61;33.33;95210.38;2980769;39;20066;-72
2021/04/24 08:57:37;;;;;;;10.35;5.13;;;;;;;12.79;32.83;95205.00;2980646;39;20084;-72
2021/04/24 08:59:38;;;;;;;9.48;4.65;;;;;;;12.67;31.50;95204.50;2980475;39;20137;-73
2021/04/24 09:01:40;;;;;;;11.95;5.05;;;;;;;12.76;32.45;95200.09;2980334;39;20798;-71
2021/04/24 09:03:42;;;;;;;8.77;4.55;;;;;;;12.96;31.56;95198.81;2980632;39;20074;-74
2021/04/24 09:05:43;;;;;;;11.35;5.45;;;;;;;12.84;31.54;95197.44;2981643;39;20059;-75
2021/04/24 09:07:45;;;;;;;14.02;5.95;;;;;;;12.46;31.96;95199.66;2980658;39;20099;-74
2021/04/24 09:09:56;;;;;;;8.15;4.88;;;;;;;12.29;31.29;95190.88;2979134;39;20058;-74
2021/04/24 09:12:01;;;;;;;7.43;4.47;;;;;;;12.16;31.60;95186.06;2980163;39;20123;-72
2021/04/24 09:14:05;;;;;;;13.07;5.40;;;;;;;12.20;31.22;95178.69;2980968;39;20063;-73
2021/04/24 09:16:23;;;;;;;10.52;5.47;;;;;;;12.46;30.46;95173.38;2985718;39;20066;-72
2021/04/24 09:18:26;;;;;;;9.25;4.63;;;;;;;12.54;30.17;95172.56;2981122;39;20051;-75
2021/04/24 09:20:48;;;;;;;9.52;5.55;;;;;;;12.63;31.11;95164.56;2980654;39;20062;-74
2021/04/24 09:23:08;;;;;;;7.53;4.38;;;;;;;12.73;31.04;95158.31;2980673;39;20078;-72
2021/04/24 09:25:09;;;;;;;9.93;4.63;;;;;;;12.59;30.41;95168.47;2981106;39;20091;-77
2021/04/24 09:27:11;;;;;;;9.65;4.70;;;;;;;12.60;30.81;95158.78;2981683;39;20132;-74
2021/04/24 09:29:27;;;;;;;10.75;5.43;;;;;;;12.75;30.52;95164.25;2979957;39;20051;-75
2021/04/24 09:31:29;;;;;;;7.75;4.70;;;;;;;12.97;31.47;95158.38;2985729;39;20428;-74
2021/04/24 09:33:33;;;;;;;9.43;4.60;;;;;;;13.19;30.16;95153.47;2986267;39;20442;-74
2021/04/24 09:35:53;;;;;;;9.98;4.85;;;;;;;13.44;29.43;95165.69;2981481;39;20063;-74
2021/04/24 09:38:03;;;;;;;6.43;3.88;;;;;;;13.67;28.67;95155.28;2979902;39;20080;-73